aviador You're here:

KAPC Decoded Metar

NAPA in CA, USA
Report Time2017-08-19 14:54:00
UTC Time2017-08-19 15:02:09
Flight Rules lifr LIFR
Wind300° at 08 kt
W.Decomp.*RWY 24: 5.7 kt HW 5.7 kt RCW
RWY 36: 2.1 kt HW 7.7 kt LCW
W.Rank300° ranks 21
Current wind is above 300° avg. (6.0)
Visibility9999 m
Phenomena:N/A
Clouds:Broken 003 Hf
Overcast 005 Hf
Expected CloudBase > 400 ft AGL from Temp-Dew spread
Ceiling300 ft
Temp14°C (ISA -1)
Dew Point13°C (94% RH)
AAT12.1°C
QNH1013 hPa
Density Alt135 ft
Elevation43 ft
Report Wrong Elevation
Raw Report
KAPC 191454Z COR 30008KT 10SM BKN003 OVC005 14/13 A2992 RMK AO2
SLP123 T01440128 53005=

Extra information for KAPC:More info

Metar Taf Metar & Taf Last 4 Metars F.Rules Stats Wind Profile Meteogram Temp Stats Airport Information Weather charts Add Link Nearby VenuesMetar ALERT Operation Metar Decoded Social comments

AIRNAV info for KAPC